SLRY  Reyes Airport

Add Bookmark

Reyes, Bolivia

Status IATA
Operational REY
Latitude Longitude
14° 18' 15" S 67° 21' 12" W
-14.304400 -67.353401
Local (DST -4) UTC (GMT -4)
Jul 30, 2014 07:05 Jul 30, 2014 11:05
Sunrise-Sunset Local UTC
Begin Civil Twilight 06:27 10:27
Sunrise 06:50 10:50
Sunset 06:21 22:21
End Civil Twilight 06:43 22:43

Current Weather

METAR Observed VFR
SLRY 301000Z 00000KT 9999 NSC 16/16 Q1016 Wed, Jul 30, 2014 @ 10:00 UTC
(1 Hour, 5 Minutes ago)
Visual Flight Rules

Decoded METAR

Wind Visibility Clouds Conditions
Calm 10 km or more
  • Clear skies
  • No significant weather
Temperatures Readings Precipitation
Current Temp 16°C (61°F)
Dewpoint 16°C (61°F)
Humidity 100%
Altimeter 30"Hg
Sea Level Pressure 1016mb
Field Elevation 918.64'
None Recorded

Additional weather within a 92.6km radius of SLRY

Map ICAO Location
SLRQ 20.7km S (229°)

24 Hour Weather History

Loading
-

24 Hour Weather Graphs

Loading
-

CheckWX.com is intended as a tool to help pilots better visualize weather data. It is not intended as a substitute for an official weather briefing obtained from a Flight Service Station. CheckWX.com does not meet the FAA requirements for an official pre-flight weather briefing. Therefore, it's important that pilots still call and obtain an official FSS pre-flight weather briefing.